< < Back
Terminal Aerodrome Forecast


Current Version              Previous Versions:   1  2  3  4  5  6  7  8  9  

Terminal Aerodrome Forecast

338
FTUS42 KFFC 310944 AAB
TAFAHN
TAF AMD
KAHN 310944Z 3110/0106 07003KT P6SM SCT060
     FM311400 05007KT P6SM SCT035 SCT120
     FM311600 06008KT P6SM SCT050
     FM010000 08004KT P6SM SCT120 SCT250=

Latest METAR

490
SAUS70 KWBC 311554
MTRAHN
METAR KAHN 311551Z 09005KT 10SM CLR 31/21 A3001 RMK AO2 SLP155
T03060211


USA.gov is the U.S. government's official web portal to all federal, state and local government web resources and services.